Portada
METAR-TAF:

METAR-TAF

Aeroports :

Hakodate, Japó

latitud: 41-46N, longitud: 140-49E, altitud: 33 m

Observació

L'informe es va fer fa 1 hora i 11 minuts, a les 13:00 UTC
Vent 3 kt amb direcció variable
Temperatura 10°C
Humitat 82%
Pressió 1012 hPa
Visibilitat 10 km o més

METAR: RJCH 221300Z AUTO VRB03KT 9999 NSC 10/07 Q1012

Hora: 23:11 (14:11 UTC)

Pronòstic

L'informe es va fer fa 3 hores i 3 minuts, a les 11:08 UTC
Pronòstic vàlid del 22 a les 12 UTC al 23 a les 18 UTC
Vent 5 kt del Sud-Oest
Visibilitat 10 km o més
Escasses núvols a una alçada de 3000 ft
Evolucionant progressivament
l' 22 a les 22 UTC al 23 a les 00 UTC
Vent 17 kt del Sud-Oest
Evolucionant progressivament
l' 23 a les 09 UTC al 23 a les 12 UTC
Vent 5 kt del Oest/Sud-Oest
Temporalment
l' 23 a les 09 UTC al 23 a les 18 UTC
Escasses núvols a una alçada de 500 ft
Cel ennuvolat a una alçada de 800 ft

TAF: RJCH 221108Z 2212/2318 22005KT 9999 FEW030 BECMG 2222/2300 23017KT BECMG 2309/2312 24005KT TEMPO 2309/2318 FEW005 BKN008

Observacions i pronòstics meteorològics de més de 4000 aeroports (METAR i TAF).

Les estacions disponibles són els punts grocs i vermells al mapa.

Posi el ratolí al punt desitjat per veure el nom de l'estació.

Feu clic per veure les observacions i els pronòstics meteorològics.

Per canviar el mapa: feu clic els botons verds amb una creu de color negre per apropar; al botó verd amb un guió per allunyar la imatge; o en les fletxes verdes per a mapes adjacents.


METAR-TAF: